createdAt,value
2019-03-26T00:00:01.327Z,3.51
2019-03-26T00:01:01.327Z,3.51
2019-03-26T00:02:01.307Z,3.51
2019-03-26T00:03:01.300Z,3.58
2019-03-26T00:04:06.012Z,3.68
2019-03-26T00:05:02.276Z,3.58
2019-03-26T00:06:01.270Z,3.58
2019-03-26T00:07:01.253Z,3.72
2019-03-26T00:08:01.240Z,3.75
2019-03-26T00:09:01.231Z,3.73
2019-03-26T00:10:01.215Z,3.76
2019-03-26T00:11:01.205Z,3.60
2019-03-26T00:12:01.203Z,3.66
2019-03-26T00:13:01.184Z,3.76
2019-03-26T00:14:01.173Z,3.60
2019-03-26T00:15:01.167Z,3.61
2019-03-26T00:16:01.159Z,3.66
2019-03-26T00:17:01.145Z,3.72
2019-03-26T00:18:01.143Z,3.61
2019-03-26T00:19:01.118Z,3.62
2019-03-26T00:20:01.122Z,3.62
2019-03-26T00:21:01.105Z,3.61
2019-03-26T00:22:01.092Z,3.58
2019-03-26T00:23:01.087Z,3.57
2019-03-26T00:24:01.078Z,3.52
2019-03-26T00:25:01.062Z,3.61
2019-03-26T00:26:01.049Z,3.51
2019-03-26T00:27:01.040Z,3.43
2019-03-26T00:28:01.028Z,3.47
2019-03-26T00:29:01.029Z,3.52
2019-03-26T00:30:01.005Z,3.45
2019-03-26T00:31:00.993Z,3.47
2019-03-26T00:32:00.987Z,3.52
2019-03-26T00:33:00.974Z,3.47
2019-03-26T00:34:00.965Z,3.45
2019-03-26T00:35:00.975Z,3.45
2019-03-26T00:36:00.945Z,3.42
2019-03-26T00:37:00.927Z,3.36
2019-03-26T00:38:00.919Z,3.40
2019-03-26T00:39:00.928Z,3.40
2019-03-26T00:40:00.901Z,3.42
2019-03-26T00:41:00.901Z,3.35
2019-03-26T00:42:00.885Z,3.29
2019-03-26T00:43:00.868Z,3.36
2019-03-26T00:44:00.863Z,3.39
2019-03-26T00:45:00.849Z,3.35
2019-03-26T00:46:00.843Z,3.35
2019-03-26T00:47:00.827Z,3.32
2019-03-26T00:48:00.809Z,3.29
2019-03-26T00:49:00.805Z,3.32
2019-03-26T00:50:00.800Z,3.32
2019-03-26T00:51:00.778Z,3.26
2019-03-26T00:52:00.789Z,3.24
2019-03-26T00:53:00.764Z,3.24
2019-03-26T00:54:00.757Z,3.31
2019-03-26T00:55:00.741Z,3.26
2019-03-26T00:56:00.733Z,3.20
2019-03-26T00:57:00.719Z,3.26
2019-03-26T00:58:01.812Z,3.28
2019-03-26T00:59:00.703Z,3.26
2019-03-26T01:00:00.701Z,3.24
2019-03-26T01:01:00.679Z,3.24
2019-03-26T01:02:00.675Z,3.24
2019-03-26T01:03:00.661Z,3.29
2019-03-26T01:04:00.657Z,3.26
2019-03-26T01:05:00.634Z,3.29
2019-03-26T01:06:00.627Z,3.28
2019-03-26T01:07:00.616Z,3.24
2019-03-26T01:08:00.608Z,3.24
2019-03-26T01:09:00.596Z,3.18
2019-03-26T01:10:00.634Z,3.24
2019-03-26T01:11:00.578Z,3.14
2019-03-26T01:12:00.567Z,3.28
2019-03-26T01:13:00.606Z,3.14
2019-03-26T01:14:00.545Z,3.18
2019-03-26T01:15:00.605Z,3.13
2019-03-26T01:16:00.524Z,3.18
2019-03-26T01:17:00.508Z,3.20
2019-03-26T01:18:00.507Z,3.15
2019-03-26T01:19:00.492Z,3.20
2019-03-26T01:20:00.484Z,3.10
2019-03-26T01:21:00.472Z,3.06
2019-03-26T01:22:00.464Z,3.10
2019-03-26T01:23:00.454Z,3.02
2019-03-26T01:24:00.435Z,3.03
2019-03-26T01:25:00.433Z,3.08
2019-03-26T01:26:00.416Z,3.06
2019-03-26T01:27:00.417Z,3.03
2019-03-26T01:28:00.399Z,2.99
2019-03-26T01:29:00.383Z,3.00
2019-03-26T01:30:00.376Z,2.96
2019-03-26T01:31:00.363Z,2.97
2019-03-26T01:32:00.361Z,2.90
2019-03-26T01:33:00.344Z,2.92
2019-03-26T01:34:00.330Z,2.96
2019-03-26T01:35:00.348Z,2.92
2019-03-26T01:36:00.314Z,2.89
2019-03-26T01:37:00.305Z,2.95
2019-03-26T01:38:00.303Z,2.95
2019-03-26T01:39:00.279Z,2.95
2019-03-26T01:40:00.351Z,2.92
2019-03-26T01:41:00.255Z,2.93
2019-03-26T01:42:00.251Z,2.93
2019-03-26T01:43:00.239Z,2.95
2019-03-26T01:44:00.240Z,2.87
2019-03-26T01:45:00.359Z,2.84
2019-03-26T01:46:00.212Z,2.96
2019-03-26T01:47:00.196Z,2.90
2019-03-26T01:48:00.187Z,2.93
2019-03-26T01:49:00.179Z,2.90
2019-03-26T01:50:00.361Z,2.96
2019-03-26T01:51:00.153Z,2.93
2019-03-26T01:52:00.143Z,2.93
2019-03-26T01:53:00.130Z,2.99
2019-03-26T01:54:00.205Z,2.82
2019-03-26T01:55:00.362Z,2.89
2019-03-26T01:56:00.100Z,2.92
2019-03-26T01:57:00.091Z,2.81
2019-03-26T01:58:00.077Z,2.96
2019-03-26T01:59:00.071Z,2.81
2019-03-26T02:00:00.096Z,2.82
2019-03-26T02:01:00.047Z,2.92
2019-03-26T02:02:00.038Z,2.85
2019-03-26T02:03:00.032Z,2.89
2019-03-26T02:04:00.013Z,2.97
2019-03-26T02:05:00.632Z,2.75
2019-03-26T02:06:00.005Z,2.82
2019-03-26T02:06:59.994Z,2.82
2019-03-26T02:07:59.973Z,2.75
2019-03-26T02:08:59.961Z,2.74
2019-03-26T02:09:59.949Z,2.67
2019-03-26T02:10:59.939Z,2.69
2019-03-26T02:11:59.934Z,2.69
2019-03-26T02:12:59.915Z,2.75
2019-03-26T02:13:59.908Z,2.78
2019-03-26T02:14:59.899Z,2.75
2019-03-26T02:15:59.895Z,2.75
2019-03-26T02:16:59.880Z,2.79
2019-03-26T02:17:59.900Z,2.72
2019-03-26T02:18:59.858Z,2.77
2019-03-26T02:19:59.845Z,2.84
2019-03-26T02:20:59.835Z,2.78
2019-03-26T02:21:59.827Z,2.78
2019-03-26T02:22:59.819Z,2.75
2019-03-26T02:23:59.805Z,2.69
2019-03-26T02:24:59.789Z,2.75
2019-03-26T02:25:59.787Z,2.74
2019-03-26T02:26:59.773Z,2.77
2019-03-26T02:27:59.779Z,2.75
2019-03-26T02:28:59.756Z,2.74
2019-03-26T02:29:59.750Z,2.71
2019-03-26T02:30:59.731Z,2.69
2019-03-26T02:31:59.721Z,2.79
2019-03-26T02:32:59.716Z,2.72
2019-03-26T02:33:59.697Z,2.72
2019-03-26T02:35:16.388Z,2.77
2019-03-26T02:36:00.677Z,2.74
2019-03-26T02:36:59.667Z,2.78
2019-03-26T02:37:59.658Z,2.75
2019-03-26T02:38:59.643Z,2.77
2019-03-26T02:39:59.639Z,2.78
2019-03-26T02:40:59.630Z,2.81
2019-03-26T02:41:59.613Z,2.79
2019-03-26T02:42:59.605Z,2.75
2019-03-26T02:43:59.599Z,2.78
2019-03-26T02:44:59.600Z,2.78
2019-03-26T02:45:59.571Z,2.79
2019-03-26T02:46:59.583Z,2.67
2019-03-26T02:47:59.549Z,2.72
2019-03-26T02:48:59.539Z,2.63
2019-03-26T02:49:59.531Z,2.61
2019-03-26T02:50:59.527Z,2.61
2019-03-26T02:51:59.510Z,2.60
2019-03-26T02:52:59.506Z,2.57
2019-03-26T02:53:59.493Z,2.61
2019-03-26T02:54:59.481Z,2.63
2019-03-26T02:55:59.472Z,2.60
2019-03-26T02:56:59.461Z,2.56
2019-03-26T02:57:59.455Z,2.66
2019-03-26T02:58:59.453Z,2.66
2019-03-26T02:59:59.431Z,2.61
2019-03-26T03:00:59.421Z,2.64
2019-03-26T03:01:59.404Z,2.61
2019-03-26T03:02:59.398Z,2.63
2019-03-26T03:03:59.387Z,2.61
2019-03-26T03:04:59.371Z,2.63
2019-03-26T03:05:59.364Z,2.66
2019-03-26T03:06:59.352Z,2.64
2019-03-26T03:07:59.354Z,2.78
2019-03-26T03:08:59.330Z,2.74
2019-03-26T03:09:59.329Z,2.63
2019-03-26T03:10:59.313Z,2.63
2019-03-26T03:11:59.295Z,2.67
2019-03-26T03:12:59.295Z,2.63
2019-03-26T03:13:59.293Z,2.63
2019-03-26T03:14:59.272Z,2.66
2019-03-26T03:15:59.267Z,2.64
2019-03-26T03:16:59.259Z,2.63
2019-03-26T03:17:59.234Z,2.57
2019-03-26T03:18:59.230Z,2.67
2019-03-26T03:19:59.225Z,2.57
2019-03-26T03:20:59.213Z,2.66
2019-03-26T03:21:59.208Z,2.60
2019-03-26T03:22:59.184Z,2.53
2019-03-26T03:23:59.175Z,2.64
2019-03-26T03:24:59.173Z,2.63
2019-03-26T03:25:59.158Z,2.57
2019-03-26T03:26:59.149Z,2.57
2019-03-26T03:27:59.157Z,2.60
2019-03-26T03:28:59.129Z,2.60
2019-03-26T03:29:59.110Z,2.61
2019-03-26T03:30:59.114Z,2.71
2019-03-26T03:31:59.165Z,2.64
2019-03-26T03:32:59.082Z,2.60
2019-03-26T03:33:59.073Z,2.61
2019-03-26T03:34:59.067Z,2.64
2019-03-26T03:35:59.049Z,2.64
2019-03-26T03:36:59.046Z,2.61
2019-03-26T03:37:59.038Z,2.64
2019-03-26T03:38:59.031Z,2.69
2019-03-26T03:39:59.011Z,2.60
2019-03-26T03:40:59.008Z,2.64
2019-03-26T03:41:58.991Z,2.66
2019-03-26T03:42:58.975Z,2.69
2019-03-26T03:43:58.970Z,2.74
2019-03-26T03:44:58.964Z,2.67
2019-03-26T03:45:58.943Z,2.64
2019-03-26T03:46:58.944Z,2.69
2019-03-26T03:47:58.923Z,2.72
2019-03-26T03:48:58.916Z,2.72
2019-03-26T03:49:58.906Z,2.78
2019-03-26T03:50:58.908Z,2.69
2019-03-26T03:51:58.944Z,2.71
2019-03-26T03:52:58.875Z,2.75
2019-03-26T03:53:58.860Z,2.72
2019-03-26T03:54:58.849Z,2.75
2019-03-26T03:55:58.846Z,2.74
2019-03-26T03:56:58.826Z,2.75
2019-03-26T03:57:58.838Z,2.75
2019-03-26T03:58:58.811Z,2.75
2019-03-26T03:59:58.799Z,2.75
2019-03-26T04:00:58.794Z,2.78
2019-03-26T04:01:58.782Z,2.75
2019-03-26T04:02:58.763Z,2.81
2019-03-26T04:03:58.758Z,2.78
2019-03-26T04:04:58.745Z,2.89
2019-03-26T04:06:09.027Z,2.84
2019-03-26T04:06:59.723Z,2.87
2019-03-26T04:07:58.724Z,2.90
2019-03-26T04:08:58.708Z,2.79
2019-03-26T04:09:58.695Z,2.87
2019-03-26T04:10:58.682Z,2.81
2019-03-26T04:11:58.674Z,2.87
2019-03-26T04:12:58.664Z,2.90
2019-03-26T04:13:58.653Z,2.97
2019-03-26T04:14:58.648Z,2.96
2019-03-26T04:15:58.632Z,2.93
2019-03-26T04:16:58.618Z,2.90
2019-03-26T04:17:58.603Z,3.00
2019-03-26T04:18:58.595Z,2.92
2019-03-26T04:19:58.589Z,2.99
2019-03-26T04:20:58.581Z,2.97
2019-03-26T04:21:58.570Z,2.93
2019-03-26T04:22:58.563Z,2.96
2019-03-26T04:23:58.551Z,2.89
2019-03-26T04:24:58.551Z,2.95
2019-03-26T04:25:58.533Z,3.05
2019-03-26T04:26:58.516Z,3.03
2019-03-26T04:27:58.509Z,3.00
2019-03-26T04:28:58.496Z,3.05
2019-03-26T04:29:58.489Z,3.02
2019-03-26T04:30:58.497Z,3.06
2019-03-26T04:31:58.466Z,2.97
2019-03-26T04:32:58.460Z,3.02
2019-03-26T04:33:58.448Z,2.99
2019-03-26T04:34:58.437Z,3.02
2019-03-26T04:35:58.420Z,2.97
2019-03-26T04:36:58.412Z,3.10
2019-03-26T04:37:58.405Z,3.06
2019-03-26T04:38:58.388Z,3.05
2019-03-26T04:39:58.375Z,3.11
2019-03-26T04:40:58.363Z,3.03
2019-03-26T04:41:58.358Z,3.08
2019-03-26T04:42:58.354Z,3.10
2019-03-26T04:43:58.339Z,3.08
2019-03-26T04:44:58.328Z,3.17
2019-03-26T04:45:58.319Z,3.08
2019-03-26T04:46:58.305Z,3.17
2019-03-26T04:47:58.296Z,3.18
2019-03-26T04:48:58.287Z,3.23
2019-03-26T04:49:58.266Z,3.24
2019-03-26T04:50:58.260Z,3.32
2019-03-26T04:51:58.250Z,3.31
2019-03-26T04:52:58.251Z,3.32
2019-03-26T04:53:58.239Z,3.26
2019-03-26T04:54:58.227Z,3.32
2019-03-26T04:55:58.209Z,3.39
2019-03-26T04:56:58.198Z,3.33
2019-03-26T04:57:58.188Z,3.32
2019-03-26T04:58:58.179Z,3.31
2019-03-26T04:59:58.163Z,3.39
2019-03-26T05:00:58.154Z,3.45
2019-03-26T05:01:58.145Z,3.47
2019-03-26T05:02:58.136Z,3.42
2019-03-26T05:03:58.131Z,3.48
2019-03-26T05:04:58.125Z,3.55
2019-03-26T05:05:58.101Z,3.48
2019-03-26T05:06:58.098Z,3.54
2019-03-26T05:07:58.084Z,3.47
2019-03-26T05:08:58.078Z,3.54
2019-03-26T05:09:58.063Z,3.51
2019-03-26T05:10:58.059Z,3.55
2019-03-26T05:11:58.040Z,3.57
2019-03-26T05:12:58.034Z,3.43
2019-03-26T05:13:58.020Z,3.45
2019-03-26T05:14:58.017Z,3.50
2019-03-26T05:15:58.009Z,3.47
2019-03-26T05:16:57.988Z,3.51
2019-03-26T05:17:57.973Z,3.50
2019-03-26T05:18:57.964Z,3.50
2019-03-26T05:19:57.953Z,3.52
2019-03-26T05:20:57.942Z,3.51
2019-03-26T05:21:57.934Z,3.47
2019-03-26T05:22:57.925Z,3.45
2019-03-26T05:23:57.915Z,3.43
2019-03-26T05:24:57.901Z,3.52
2019-03-26T05:25:57.898Z,3.47
2019-03-26T05:26:57.878Z,3.54
2019-03-26T05:27:57.877Z,3.33
2019-03-26T05:28:57.864Z,3.45
2019-03-26T05:29:57.849Z,3.45
2019-03-26T05:30:57.836Z,3.35
2019-03-26T05:31:57.826Z,3.40
2019-03-26T05:32:57.818Z,3.45
2019-03-26T05:33:57.819Z,3.36
2019-03-26T05:34:57.803Z,3.40
2019-03-26T05:35:57.782Z,3.40
2019-03-26T05:36:57.773Z,3.39
2019-03-26T05:37:57.764Z,3.35
2019-03-26T05:38:57.752Z,3.31
2019-03-26T05:39:57.747Z,3.31
2019-03-26T05:40:57.735Z,3.26
2019-03-26T05:41:57.727Z,3.29
2019-03-26T05:42:57.715Z,3.28
2019-03-26T05:43:57.699Z,3.33
2019-03-26T05:44:57.703Z,3.36
2019-03-26T05:45:57.682Z,3.31
2019-03-26T05:46:57.667Z,3.40
2019-03-26T05:47:57.657Z,3.40
2019-03-26T05:48:57.654Z,3.42
2019-03-26T05:49:57.639Z,3.43
2019-03-26T05:50:57.630Z,3.36
2019-03-26T05:51:57.618Z,3.47
2019-03-26T05:52:57.608Z,3.42
2019-03-26T05:53:57.599Z,3.47
2019-03-26T05:54:57.589Z,3.45
2019-03-26T05:55:57.579Z,3.52
2019-03-26T05:56:57.565Z,3.45
2019-03-26T05:57:57.555Z,3.45
2019-03-26T05:58:57.545Z,3.52
2019-03-26T05:59:57.530Z,3.47
2019-03-26T06:00:57.522Z,3.54
2019-03-26T06:01:57.512Z,3.47
2019-03-26T06:02:57.497Z,3.54
2019-03-26T06:03:57.486Z,3.58
2019-03-26T06:04:57.476Z,3.58
2019-03-26T06:05:57.474Z,3.62
2019-03-26T06:07:04.674Z,3.58
2019-03-26T06:07:58.442Z,3.76
2019-03-26T06:08:57.430Z,3.69
2019-03-26T06:09:57.428Z,3.72
2019-03-26T06:10:57.408Z,3.72
2019-03-26T06:11:57.400Z,3.70
2019-03-26T06:12:57.400Z,3.68
2019-03-26T06:13:57.376Z,3.78
2019-03-26T06:14:57.366Z,3.76
2019-03-26T06:15:57.358Z,3.84
2019-03-26T06:16:57.342Z,3.79
2019-03-26T06:17:57.713Z,3.87
2019-03-26T06:18:57.328Z,3.80
2019-03-26T06:19:57.310Z,3.87
2019-03-26T06:20:57.299Z,3.98
2019-03-26T06:21:57.289Z,4.05
2019-03-26T06:22:57.287Z,4.02
2019-03-26T06:23:57.271Z,4.18
2019-03-26T06:24:57.261Z,4.18
2019-03-26T06:25:57.248Z,4.22
2019-03-26T06:26:57.242Z,4.23
2019-03-26T06:27:57.220Z,4.34
2019-03-26T06:28:57.216Z,4.34
2019-03-26T06:29:57.212Z,4.37
2019-03-26T06:30:57.202Z,4.51
2019-03-26T06:31:57.186Z,4.69
2019-03-26T06:32:57.172Z,4.73
2019-03-26T06:33:57.164Z,4.77
2019-03-26T06:34:57.152Z,4.94
2019-03-26T06:35:57.142Z,5.93
2019-03-26T06:36:57.161Z,5.79
2019-03-26T06:37:57.123Z,5.56
2019-03-26T06:38:57.113Z,5.64
2019-03-26T06:39:58.446Z,5.48
2019-03-26T06:40:57.090Z,5.18
2019-03-26T06:41:57.083Z,5.22
2019-03-26T06:42:57.073Z,5.09
2019-03-26T06:43:57.058Z,4.94
2019-03-26T06:44:57.051Z,4.96
2019-03-26T06:45:57.030Z,4.88
2019-03-26T06:46:57.033Z,4.92
2019-03-26T06:47:57.008Z,4.86
2019-03-26T06:48:57.004Z,4.85
2019-03-26T06:49:56.998Z,4.82
2019-03-26T06:50:56.986Z,4.82
2019-03-26T06:51:56.972Z,4.85
2019-03-26T06:52:56.960Z,4.88
2019-03-26T06:53:56.945Z,4.84
2019-03-26T06:54:56.950Z,4.89
2019-03-26T06:55:56.924Z,4.91
2019-03-26T06:56:56.922Z,4.92
2019-03-26T06:57:56.910Z,5.00
2019-03-26T06:58:56.903Z,4.94
2019-03-26T06:59:56.888Z,4.92
2019-03-26T07:00:56.874Z,4.94
2019-03-26T07:01:56.864Z,4.89
2019-03-26T07:02:56.848Z,4.99
2019-03-26T07:03:56.847Z,4.96
2019-03-26T07:04:56.828Z,5.03
2019-03-26T07:05:56.818Z,5.02
2019-03-26T07:06:57.968Z,5.06
2019-03-26T07:07:56.804Z,5.04
2019-03-26T07:08:56.786Z,5.21
2019-03-26T07:09:56.779Z,5.21
2019-03-26T07:10:56.768Z,5.15
2019-03-26T07:11:56.763Z,5.18
2019-03-26T07:12:56.750Z,5.20
2019-03-26T07:13:56.756Z,5.20
2019-03-26T07:14:56.724Z,5.17
2019-03-26T07:15:56.716Z,5.21
2019-03-26T07:16:56.704Z,5.21
2019-03-26T07:17:56.703Z,5.10
2019-03-26T07:18:56.681Z,5.10
2019-03-26T07:19:56.670Z,5.18
2019-03-26T07:20:56.660Z,5.18
2019-03-26T07:21:56.661Z,5.17
2019-03-26T07:22:56.636Z,5.20
2019-03-26T07:23:56.633Z,5.15
2019-03-26T07:24:56.616Z,5.15
2019-03-26T07:25:56.607Z,5.24
2019-03-26T07:26:56.604Z,5.15
2019-03-26T07:27:56.586Z,5.22
2019-03-26T07:28:56.950Z,5.25
2019-03-26T07:29:56.568Z,5.22
2019-03-26T07:30:56.554Z,5.25
2019-03-26T07:31:56.541Z,5.17
2019-03-26T07:32:56.534Z,5.22
2019-03-26T07:33:56.524Z,5.36
2019-03-26T07:34:56.510Z,5.43
2019-03-26T07:35:56.500Z,5.45
2019-03-26T07:36:56.504Z,5.48
2019-03-26T07:37:56.484Z,5.60
2019-03-26T07:38:56.471Z,5.75
2019-03-26T07:39:56.461Z,5.74
2019-03-26T07:40:56.444Z,5.90
2019-03-26T07:41:56.437Z,6.04
2019-03-26T07:42:56.427Z,6.12
2019-03-26T07:43:56.426Z,6.52
2019-03-26T07:44:56.401Z,7.17
2019-03-26T07:45:56.399Z,7.32
2019-03-26T07:46:56.381Z,7.13
2019-03-26T07:47:56.371Z,6.89
2019-03-26T07:48:56.358Z,6.79
2019-03-26T07:49:56.362Z,6.71
2019-03-26T07:50:56.333Z,6.61
2019-03-26T07:51:56.329Z,6.59
2019-03-26T07:52:56.324Z,6.59
2019-03-26T07:53:56.325Z,6.52
2019-03-26T07:54:56.303Z,6.59
2019-03-26T07:55:56.288Z,6.74
2019-03-26T07:56:56.274Z,6.92
2019-03-26T07:57:56.270Z,7.34
2019-03-26T07:58:56.256Z,7.53
2019-03-26T07:59:56.247Z,7.87
2019-03-26T08:00:56.239Z,8.02
2019-03-26T08:01:56.214Z,7.85
2019-03-26T08:02:56.209Z,7.71
2019-03-26T08:03:56.200Z,8.66
2019-03-26T08:04:56.185Z,9.01
2019-03-26T08:05:56.174Z,8.86
2019-03-26T08:06:56.167Z,8.84
2019-03-26T08:07:58.537Z,9.50
2019-03-26T08:08:56.143Z,10.30
2019-03-26T08:09:56.134Z,10.63
2019-03-26T08:10:56.124Z,10.44
2019-03-26T08:11:56.118Z,10.09
2019-03-26T08:12:56.142Z,9.94
2019-03-26T08:13:56.092Z,9.89
2019-03-26T08:14:56.110Z,9.91
2019-03-26T08:15:56.113Z,9.76
2019-03-26T08:16:56.086Z,9.89
2019-03-26T08:17:56.047Z,9.96
2019-03-26T08:18:56.042Z,9.94
2019-03-26T08:19:56.033Z,9.75
2019-03-26T08:20:57.451Z,9.94
2019-03-26T08:21:56.010Z,10.17
2019-03-26T08:22:55.990Z,10.55
2019-03-26T08:23:55.993Z,10.60
2019-03-26T08:24:55.972Z,10.59
2019-03-26T08:25:55.960Z,12.05
2019-03-26T08:26:55.952Z,11.91
2019-03-26T08:27:55.943Z,12.72
2019-03-26T08:28:55.934Z,13.05
2019-03-26T08:29:55.916Z,13.30
2019-03-26T08:30:55.908Z,13.91
2019-03-26T08:31:55.891Z,14.09
2019-03-26T08:32:55.882Z,13.42
2019-03-26T08:33:55.870Z,12.83
2019-03-26T08:34:55.876Z,11.75
2019-03-26T08:35:55.851Z,10.88
2019-03-26T08:36:55.845Z,10.41
2019-03-26T08:37:55.827Z,10.36
2019-03-26T08:38:55.822Z,10.05
2019-03-26T08:39:55.815Z,9.64
2019-03-26T08:40:55.806Z,9.40
2019-03-26T08:41:55.784Z,9.15
2019-03-26T08:42:55.778Z,8.91
2019-03-26T08:43:55.842Z,8.68
2019-03-26T08:44:55.754Z,8.62
2019-03-26T08:45:55.753Z,8.58
2019-03-26T08:46:55.745Z,8.61
2019-03-26T08:47:55.722Z,8.41
2019-03-26T08:48:55.711Z,8.15
2019-03-26T08:49:55.703Z,8.02
2019-03-26T08:50:55.689Z,7.86
2019-03-26T08:51:55.681Z,7.68
2019-03-26T08:52:55.672Z,7.53
2019-03-26T08:53:55.655Z,7.60
2019-03-26T08:54:55.649Z,7.58
2019-03-26T08:55:55.644Z,7.55
2019-03-26T08:56:55.626Z,7.63
2019-03-26T08:57:55.619Z,7.90
2019-03-26T08:58:55.605Z,8.11
2019-03-26T08:59:55.591Z,8.22
2019-03-26T09:00:55.581Z,8.45
2019-03-26T09:01:55.575Z,8.61
2019-03-26T09:02:55.564Z,9.32
2019-03-26T09:03:55.545Z,9.39
2019-03-26T09:04:55.534Z,9.18
2019-03-26T09:05:55.529Z,9.28
2019-03-26T09:06:55.512Z,9.83
2019-03-26T09:07:55.507Z,9.86
2019-03-26T09:08:55.505Z,9.68
2019-03-26T09:09:55.485Z,9.21
2019-03-26T09:10:55.474Z,8.92
2019-03-26T09:11:55.461Z,8.52
2019-03-26T09:12:55.456Z,8.33
2019-03-26T09:13:55.443Z,8.29
2019-03-26T09:14:55.439Z,8.36
2019-03-26T09:15:55.424Z,8.20
2019-03-26T09:16:55.409Z,7.98
2019-03-26T09:17:55.397Z,7.97
2019-03-26T09:18:55.386Z,7.87
2019-03-26T09:19:55.383Z,7.75
2019-03-26T09:20:55.363Z,7.83
2019-03-26T09:21:55.358Z,7.71
2019-03-26T09:22:55.346Z,7.79
2019-03-26T09:23:55.330Z,7.74
2019-03-26T09:24:55.319Z,7.67
2019-03-26T09:25:55.313Z,7.68
2019-03-26T09:26:55.303Z,7.75
2019-03-26T09:27:55.293Z,7.68
2019-03-26T09:28:55.277Z,7.67
2019-03-26T09:29:55.272Z,7.61
2019-03-26T09:30:55.261Z,7.71
2019-03-26T09:31:55.258Z,7.75
2019-03-26T09:32:55.243Z,7.75
2019-03-26T09:33:55.226Z,7.89
2019-03-26T09:34:55.218Z,7.87
2019-03-26T09:35:55.203Z,7.92
2019-03-26T09:36:55.205Z,7.89
2019-03-26T09:37:55.181Z,8.02
2019-03-26T09:38:55.175Z,7.95
2019-03-26T09:39:55.163Z,7.92
2019-03-26T09:40:55.156Z,8.01
2019-03-26T09:41:55.143Z,8.04
2019-03-26T09:42:55.133Z,7.98
2019-03-26T09:43:55.123Z,8.18
2019-03-26T09:44:56.581Z,8.20
2019-03-26T09:45:55.101Z,8.26
2019-03-26T09:46:55.094Z,8.37
2019-03-26T09:47:55.098Z,8.16
2019-03-26T09:48:55.072Z,8.22
2019-03-26T09:49:55.055Z,8.30
2019-03-26T09:50:55.050Z,8.26
2019-03-26T09:51:55.045Z,8.34
2019-03-26T09:52:55.033Z,8.25
2019-03-26T09:53:55.023Z,8.15
2019-03-26T09:54:55.013Z,8.02
2019-03-26T09:55:55.003Z,8.00
2019-03-26T09:56:54.985Z,8.04
2019-03-26T09:57:54.975Z,7.98
2019-03-26T09:58:54.958Z,8.20
2019-03-26T09:59:54.963Z,8.23
2019-03-26T10:00:54.941Z,8.30
2019-03-26T10:01:54.929Z,9.78
2019-03-26T10:02:54.998Z,9.68
2019-03-26T10:03:54.910Z,9.28
2019-03-26T10:04:54.900Z,9.05
2019-03-26T10:05:54.895Z,8.91
2019-03-26T10:06:54.879Z,8.73
2019-03-26T10:07:54.868Z,8.63
2019-03-26T10:08:54.860Z,8.41
2019-03-26T10:09:54.853Z,8.28
2019-03-26T10:10:54.841Z,8.30
2019-03-26T10:11:54.830Z,8.29
2019-03-26T10:12:54.815Z,9.11
2019-03-26T10:13:54.807Z,9.99
2019-03-26T10:14:54.793Z,9.84
2019-03-26T10:15:54.780Z,9.74
2019-03-26T10:16:54.778Z,9.79
2019-03-26T10:17:54.761Z,9.72
2019-03-26T10:18:54.748Z,9.53
2019-03-26T10:19:54.780Z,9.40
2019-03-26T10:20:54.730Z,9.17
2019-03-26T10:21:54.713Z,9.01
2019-03-26T10:22:54.709Z,8.80
2019-03-26T10:23:54.693Z,8.65
2019-03-26T10:24:54.683Z,8.62
2019-03-26T10:25:54.677Z,8.70
2019-03-26T10:26:54.673Z,8.63
2019-03-26T10:27:54.655Z,8.58
2019-03-26T10:28:54.645Z,8.28
2019-03-26T10:29:54.625Z,8.15
2019-03-26T10:30:54.617Z,8.15
2019-03-26T10:31:54.607Z,8.19
2019-03-26T10:32:54.594Z,8.19
2019-03-26T10:33:54.593Z,8.23
2019-03-26T10:34:54.571Z,8.26
2019-03-26T10:35:54.565Z,8.29
2019-03-26T10:36:54.552Z,8.26
2019-03-26T10:37:54.541Z,8.18
2019-03-26T10:39:05.170Z,8.15
2019-03-26T10:39:55.558Z,8.16
2019-03-26T10:40:54.510Z,8.19
2019-03-26T10:41:54.495Z,8.04
2019-03-26T10:42:54.487Z,8.04
2019-03-26T10:43:54.477Z,8.00
2019-03-26T10:44:54.473Z,8.05
2019-03-26T10:45:54.465Z,8.01
2019-03-26T10:46:54.447Z,7.98
2019-03-26T10:47:54.432Z,8.00
2019-03-26T10:48:54.423Z,7.97
2019-03-26T10:49:54.415Z,8.04
2019-03-26T10:50:54.410Z,8.15
2019-03-26T10:51:54.393Z,8.22
2019-03-26T10:52:54.384Z,8.30
2019-03-26T10:53:54.373Z,8.55
2019-03-26T10:54:54.362Z,8.56
2019-03-26T10:55:54.354Z,8.83
2019-03-26T10:56:54.340Z,8.84
2019-03-26T10:57:54.331Z,8.91
2019-03-26T10:58:54.313Z,9.01
2019-03-26T10:59:54.305Z,9.05
2019-03-26T11:00:54.299Z,9.08
2019-03-26T11:01:54.286Z,8.98
2019-03-26T11:02:54.287Z,9.02
2019-03-26T11:03:54.263Z,8.94
2019-03-26T11:04:54.249Z,8.98
2019-03-26T11:05:54.243Z,9.10
2019-03-26T11:06:54.232Z,9.02
2019-03-26T11:07:54.219Z,9.11
2019-03-26T11:08:54.214Z,9.02
2019-03-26T11:09:54.197Z,8.99
2019-03-26T11:10:54.181Z,8.98
2019-03-26T11:11:54.181Z,9.02
2019-03-26T11:12:54.167Z,9.02
2019-03-26T11:13:54.159Z,9.10
2019-03-26T11:14:54.144Z,9.08
2019-03-26T11:15:54.135Z,8.96
2019-03-26T11:16:54.126Z,8.84
2019-03-26T11:17:54.115Z,8.76
2019-03-26T11:18:54.104Z,8.71
2019-03-26T11:19:54.103Z,8.62
2019-03-26T11:21:02.360Z,8.56
2019-03-26T11:21:55.066Z,8.53
2019-03-26T11:22:54.060Z,8.61
2019-03-26T11:23:54.049Z,8.62
2019-03-26T11:24:54.034Z,8.59
2019-03-26T11:25:54.030Z,8.76
2019-03-26T11:26:54.013Z,8.81
2019-03-26T11:27:54.005Z,8.80
2019-03-26T11:28:53.999Z,8.55
2019-03-26T11:29:53.983Z,8.63
2019-03-26T11:30:53.976Z,8.52
2019-03-26T11:31:53.964Z,8.62
2019-03-26T11:32:53.950Z,8.61
2019-03-26T11:33:53.934Z,8.55
2019-03-26T11:34:53.927Z,8.65
2019-03-26T11:35:53.931Z,8.89
2019-03-26T11:36:53.915Z,9.02
2019-03-26T11:37:53.889Z,8.92
2019-03-26T11:38:53.884Z,8.96
2019-03-26T11:39:53.877Z,8.87
2019-03-26T11:40:53.858Z,8.74
2019-03-26T11:41:53.851Z,8.61
2019-03-26T11:42:53.845Z,8.55
2019-03-26T11:43:53.824Z,8.48
2019-03-26T11:44:53.814Z,8.43
2019-03-26T11:45:53.816Z,8.44
2019-03-26T11:46:53.799Z,8.40
2019-03-26T11:47:53.792Z,8.37
2019-03-26T11:48:53.777Z,8.45
2019-03-26T11:49:53.762Z,8.43
2019-03-26T11:50:53.751Z,8.44
2019-03-26T11:51:53.741Z,8.37
2019-03-26T11:52:53.726Z,8.45
2019-03-26T11:53:53.722Z,8.43
2019-03-26T11:54:53.710Z,8.41
2019-03-26T11:55:53.696Z,8.55
2019-03-26T11:56:53.689Z,8.86
2019-03-26T11:57:53.681Z,9.04
2019-03-26T11:58:53.670Z,9.17
2019-03-26T11:59:53.655Z,9.21
2019-03-26T12:00:53.647Z,9.31
2019-03-26T12:01:53.631Z,9.28
2019-03-26T12:02:53.619Z,9.02
2019-03-26T12:03:53.620Z,8.96
2019-03-26T12:04:53.609Z,8.94
2019-03-26T12:05:53.588Z,8.95
2019-03-26T12:06:53.577Z,8.84
2019-03-26T12:07:53.561Z,8.62
2019-03-26T12:08:53.561Z,8.70
2019-03-26T12:09:53.556Z,8.50
2019-03-26T12:10:53.632Z,8.50
2019-03-26T12:11:53.522Z,8.55
2019-03-26T12:12:53.513Z,8.47
2019-03-26T12:13:53.513Z,8.44
2019-03-26T12:14:53.492Z,8.43
2019-03-26T12:15:53.496Z,8.50
2019-03-26T12:16:53.469Z,8.44
2019-03-26T12:17:53.457Z,8.43
2019-03-26T12:18:53.443Z,8.45
2019-03-26T12:19:53.435Z,8.36
2019-03-26T12:20:53.433Z,8.19
2019-03-26T12:21:53.423Z,8.19
2019-03-26T12:22:53.404Z,8.16
2019-03-26T12:23:53.391Z,8.12
2019-03-26T12:24:53.382Z,8.07
2019-03-26T12:25:53.373Z,7.83
2019-03-26T12:26:53.364Z,7.80
2019-03-26T12:27:53.351Z,7.75
2019-03-26T12:28:53.338Z,7.68
2019-03-26T12:29:53.328Z,7.58
2019-03-26T12:30:53.317Z,7.49
2019-03-26T12:31:53.386Z,7.40
2019-03-26T12:32:53.296Z,7.31
2019-03-26T12:33:53.279Z,7.40
2019-03-26T12:34:53.271Z,7.34
2019-03-26T12:35:53.340Z,7.37
2019-03-26T12:36:53.252Z,7.23
2019-03-26T12:37:53.237Z,7.25
2019-03-26T12:38:53.235Z,7.21
2019-03-26T12:39:59.296Z,7.24
2019-03-26T12:40:54.212Z,7.23
2019-03-26T12:41:53.202Z,7.20
2019-03-26T12:42:53.194Z,7.25
2019-03-26T12:43:53.181Z,7.27
2019-03-26T12:44:53.167Z,7.35
2019-03-26T12:45:53.164Z,7.27
2019-03-26T12:46:53.142Z,7.27
2019-03-26T12:47:53.139Z,7.24
2019-03-26T12:48:53.125Z,7.25
2019-03-26T12:49:53.121Z,7.24
2019-03-26T12:50:53.099Z,7.23
2019-03-26T12:51:53.099Z,7.12
2019-03-26T12:52:53.080Z,7.27
2019-03-26T12:53:53.069Z,7.27
2019-03-26T12:54:53.064Z,7.30
2019-03-26T12:55:53.044Z,7.25
2019-03-26T12:56:53.033Z,7.23
2019-03-26T12:57:53.028Z,7.23
2019-03-26T12:58:53.016Z,7.24
2019-03-26T12:59:53.002Z,7.23
2019-03-26T13:00:52.995Z,7.13
2019-03-26T13:01:52.978Z,7.10
2019-03-26T13:02:52.967Z,7.05
2019-03-26T13:03:52.958Z,7.07
2019-03-26T13:04:52.953Z,7.17
2019-03-26T13:05:52.933Z,7.31
2019-03-26T13:06:52.935Z,7.39
2019-03-26T13:07:52.909Z,7.42
2019-03-26T13:08:52.897Z,7.48
2019-03-26T13:09:52.893Z,7.45
2019-03-26T13:10:54.212Z,7.48
2019-03-26T13:11:52.870Z,7.37
2019-03-26T13:12:52.862Z,7.25
2019-03-26T13:13:52.846Z,7.25
2019-03-26T13:14:52.837Z,7.30
2019-03-26T13:15:52.833Z,7.25
2019-03-26T13:16:52.819Z,7.24